sensor_id;sensor_type;location;lat;lon;timestamp;noise_LAeq;noise_LA_min;noise_LA_max;noise_LA01;noise_LA95
68279;Laerm;55108;51.790;10.960;2023-08-06T00:01:49;38.15;30.62;50.35;;
68279;Laerm;55108;51.790;10.960;2023-08-06T00:04:15;34.89;30.70;42.14;;
68279;Laerm;55108;51.790;10.960;2023-08-06T00:06:40;46.67;32.08;64.87;;
68279;Laerm;55108;51.790;10.960;2023-08-06T00:09:06;49.47;31.08;66.43;;
68279;Laerm;55108;51.790;10.960;2023-08-06T00:11:32;62.36;32.42;78.65;;
68279;Laerm;55108;51.790;10.960;2023-08-06T00:13:58;57.91;31.89;76.60;;
68279;Laerm;55108;51.790;10.960;2023-08-06T00:16:24;55.80;30.18;70.52;;
68279;Laerm;55108;51.790;10.960;2023-08-06T00:18:49;54.60;29.69;70.84;;
68279;Laerm;55108;51.790;10.960;2023-08-06T00:21:15;33.11;29.35;41.55;;
68279;Laerm;55108;51.790;10.960;2023-08-06T00:23:41;58.32;30.30;74.57;;
68279;Laerm;55108;51.790;10.960;2023-08-06T00:26:07;32.00;29.11;39.84;;
68279;Laerm;55108;51.790;10.960;2023-08-06T00:28:32;31.97;29.14;43.72;;
68279;Laerm;55108;51.790;10.960;2023-08-06T00:30:58;52.08;29.13;68.24;;
68279;Laerm;55108;51.790;10.960;2023-08-06T00:33:24;30.70;28.93;34.28;;
68279;Laerm;55108;51.790;10.960;2023-08-06T00:35:50;58.97;29.26;78.04;;
68279;Laerm;55108;51.790;10.960;2023-08-06T00:38:16;29.96;27.97;37.02;;
68279;Laerm;55108;51.790;10.960;2023-08-06T00:40:42;29.29;27.79;37.07;;
68279;Laerm;55108;51.790;10.960;2023-08-06T00:43:07;59.15;28.28;76.48;;
68279;Laerm;55108;51.790;10.960;2023-08-06T00:45:34;60.42;27.73;75.60;;
68279;Laerm;55108;51.790;10.960;2023-08-06T00:48:00;58.26;28.16;76.19;;
68279;Laerm;55108;51.790;10.960;2023-08-06T00:50:27;55.43;27.75;73.70;;
68279;Laerm;55108;51.790;10.960;2023-08-06T00:52:52;53.94;27.61;69.75;;
68279;Laerm;55108;51.790;10.960;2023-08-06T00:55:18;32.83;27.60;43.52;;
68279;Laerm;55108;51.790;10.960;2023-08-06T00:57:44;57.03;27.33;75.13;;
68279;Laerm;55108;51.790;10.960;2023-08-06T01:00:10;56.20;27.72;73.98;;
68279;Laerm;55108;51.790;10.960;2023-08-06T01:02:36;51.46;27.63;66.45;;
68279;Laerm;55108;51.790;10.960;2023-08-06T01:05:02;30.56;27.49;41.11;;
68279;Laerm;55108;51.790;10.960;2023-08-06T01:07:40;57.03;27.36;73.11;;
68279;Laerm;55108;51.790;10.960;2023-08-06T01:15:39;61.59;28.05;75.49;;
68279;Laerm;55108;51.790;10.960;2023-08-06T01:18:06;53.30;27.97;71.01;;
68279;Laerm;55108;51.790;10.960;2023-08-06T01:20:33;32.56;27.67;41.39;;
68279;Laerm;55108;51.790;10.960;2023-08-06T01:22:58;57.96;27.26;70.80;;
68279;Laerm;55108;51.790;10.960;2023-08-06T01:25:26;29.85;27.46;37.67;;
68279;Laerm;55108;51.790;10.960;2023-08-06T01:27:56;52.34;27.20;67.64;;
68279;Laerm;55108;51.790;10.960;2023-08-06T01:30:26;50.43;27.18;67.03;;
68279;Laerm;55108;51.790;10.960;2023-08-06T01:32:53;58.32;27.82;76.06;;
68279;Laerm;55108;51.790;10.960;2023-08-06T01:35:22;54.13;27.81;71.12;;
68279;Laerm;55108;51.790;10.960;2023-08-06T01:37:48;58.34;28.34;73.01;;
68279;Laerm;55108;51.790;10.960;2023-08-06T01:40:14;50.61;27.84;66.79;;
68279;Laerm;55108;51.790;10.960;2023-08-06T01:42:40;52.19;27.64;70.07;;
68279;Laerm;55108;51.790;10.960;2023-08-06T01:45:06;32.65;27.03;45.06;;
68279;Laerm;55108;51.790;10.960;2023-08-06T01:47:32;55.97;27.10;73.99;;
68279;Laerm;55108;51.790;10.960;2023-08-06T01:49:58;54.84;27.16;72.09;;
68279;Laerm;55108;51.790;10.960;2023-08-06T01:52:24;31.36;27.00;46.96;;
68279;Laerm;55108;51.790;10.960;2023-08-06T01:54:49;30.55;26.68;38.54;;
68279;Laerm;55108;51.790;10.960;2023-08-06T01:57:15;28.02;26.73;34.34;;
68279;Laerm;55108;51.790;10.960;2023-08-06T01:59:41;30.18;26.63;42.62;;
68279;Laerm;55108;51.790;10.960;2023-08-06T02:02:07;31.15;26.91;41.34;;
68279;Laerm;55108;51.790;10.960;2023-08-06T02:04:32;55.25;27.01;70.31;;
68279;Laerm;55108;51.790;10.960;2023-08-06T02:06:58;57.86;26.58;73.85;;
68279;Laerm;55108;51.790;10.960;2023-08-06T02:09:24;56.13;26.82;71.54;;
68279;Laerm;55108;51.790;10.960;2023-08-06T02:11:49;27.95;26.72;31.39;;
68279;Laerm;55108;51.790;10.960;2023-08-06T02:14:15;53.29;27.77;68.61;;
68279;Laerm;55108;51.790;10.960;2023-08-06T02:16:41;29.39;27.42;41.90;;
68279;Laerm;55108;51.790;10.960;2023-08-06T02:19:07;31.53;27.45;42.35;;
68279;Laerm;55108;51.790;10.960;2023-08-06T02:21:32;29.04;27.37;36.18;;
68279;Laerm;55108;51.790;10.960;2023-08-06T02:23:58;57.08;27.03;76.59;;
68279;Laerm;55108;51.790;10.960;2023-08-06T02:26:24;28.71;26.98;38.54;;
68279;Laerm;55108;51.790;10.960;2023-08-06T02:28:49;54.63;26.76;70.86;;
68279;Laerm;55108;51.790;10.960;2023-08-06T02:31:15;29.40;26.70;38.13;;
68279;Laerm;55108;51.790;10.960;2023-08-06T02:33:41;27.44;26.56;29.70;;
68279;Laerm;55108;51.790;10.960;2023-08-06T02:36:07;27.47;26.70;32.38;;
68279;Laerm;55108;51.790;10.960;2023-08-06T02:38:32;28.71;26.85;37.28;;
68279;Laerm;55108;51.790;10.960;2023-08-06T02:40:58;30.80;26.68;40.74;;
68279;Laerm;55108;51.790;10.960;2023-08-06T02:43:24;57.33;27.30;76.39;;
68279;Laerm;55108;51.790;10.960;2023-08-06T02:45:49;29.54;26.81;35.85;;
68279;Laerm;55108;51.790;10.960;2023-08-06T02:48:15;30.08;26.93;35.31;;
68279;Laerm;55108;51.790;10.960;2023-08-06T02:50:43;53.05;27.12;69.54;;
68279;Laerm;55108;51.790;10.960;2023-08-06T02:53:09;28.54;26.86;39.85;;
68279;Laerm;55108;51.790;10.960;2023-08-06T02:55:35;58.42;28.55;74.73;;
68279;Laerm;55108;51.790;10.960;2023-08-06T02:58:01;55.03;26.72;73.44;;
68279;Laerm;55108;51.790;10.960;2023-08-06T03:00:27;29.23;26.61;38.90;;
68279;Laerm;55108;51.790;10.960;2023-08-06T03:02:53;27.60;26.62;30.49;;
68279;Laerm;55108;51.790;10.960;2023-08-06T03:05:19;32.27;26.70;43.03;;
68279;Laerm;55108;51.790;10.960;2023-08-06T03:07:45;51.53;26.73;68.13;;
68279;Laerm;55108;51.790;10.960;2023-08-06T03:10:11;28.94;26.79;35.82;;
68279;Laerm;55108;51.790;10.960;2023-08-06T03:12:37;37.88;26.97;50.52;;
68279;Laerm;55108;51.790;10.960;2023-08-06T03:15:03;56.79;28.32;74.33;;
68279;Laerm;55108;51.790;10.960;2023-08-06T03:17:28;42.29;26.96;58.01;;
68279;Laerm;55108;51.790;10.960;2023-08-06T03:19:54;57.98;26.95;75.00;;
68279;Laerm;55108;51.790;10.960;2023-08-06T03:22:20;57.04;27.12;73.73;;
68279;Laerm;55108;51.790;10.960;2023-08-06T03:24:46;53.16;28.08;70.52;;
68279;Laerm;55108;51.790;10.960;2023-08-06T03:27:11;55.89;27.69;74.16;;
68279;Laerm;55108;51.790;10.960;2023-08-06T03:29:37;32.36;27.11;45.13;;
68279;Laerm;55108;51.790;10.960;2023-08-06T03:32:03;56.59;27.16;73.20;;
68279;Laerm;55108;51.790;10.960;2023-08-06T03:34:29;37.62;27.26;55.80;;
68279;Laerm;55108;51.790;10.960;2023-08-06T03:36:54;57.73;27.05;73.18;;
68279;Laerm;55108;51.790;10.960;2023-08-06T03:39:20;53.05;27.14;68.46;;
68279;Laerm;55108;51.790;10.960;2023-08-06T03:41:46;60.53;27.05;74.07;;
68279;Laerm;55108;51.790;10.960;2023-08-06T03:44:11;63.16;27.12;81.65;;
68279;Laerm;55108;51.790;10.960;2023-08-06T03:46:37;47.76;26.88;68.20;;
68279;Laerm;55108;51.790;10.960;2023-08-06T03:49:03;60.12;27.07;77.19;;
68279;Laerm;55108;51.790;10.960;2023-08-06T03:51:29;59.54;29.84;76.48;;
68279;Laerm;55108;51.790;10.960;2023-08-06T03:53:54;53.28;27.54;70.25;;
68279;Laerm;55108;51.790;10.960;2023-08-06T03:56:20;36.62;27.00;49.50;;
68279;Laerm;55108;51.790;10.960;2023-08-06T03:58:46;31.17;26.95;41.57;;
68279;Laerm;55108;51.790;10.960;2023-08-06T04:01:11;56.11;27.62;74.19;;
68279;Laerm;55108;51.790;10.960;2023-08-06T04:03:37;31.98;27.46;40.94;;
68279;Laerm;55108;51.790;10.960;2023-08-06T04:06:03;32.34;27.48;37.89;;
68279;Laerm;55108;51.790;10.960;2023-08-06T04:08:29;55.21;28.90;72.27;;
68279;Laerm;55108;51.790;10.960;2023-08-06T04:10:55;55.96;28.28;73.46;;
68279;Laerm;55108;51.790;10.960;2023-08-06T04:13:20;58.01;28.59;71.20;;
68279;Laerm;55108;51.790;10.960;2023-08-06T04:15:46;59.83;30.62;74.41;;
68279;Laerm;55108;51.790;10.960;2023-08-06T04:18:12;55.23;28.09;73.55;;
68279;Laerm;55108;51.790;10.960;2023-08-06T04:20:44;59.63;28.66;74.70;;
68279;Laerm;55108;51.790;10.960;2023-08-06T04:23:10;62.56;32.04;76.91;;
68279;Laerm;55108;51.790;10.960;2023-08-06T04:25:36;54.26;27.97;72.10;;
68279;Laerm;55108;51.790;10.960;2023-08-06T04:28:02;55.73;28.35;72.01;;
68279;Laerm;55108;51.790;10.960;2023-08-06T04:30:28;60.25;27.57;74.99;;
68279;Laerm;55108;51.790;10.960;2023-08-06T04:32:53;51.76;27.33;67.51;;
68279;Laerm;55108;51.790;10.960;2023-08-06T04:35:19;53.88;27.44;69.51;;
68279;Laerm;55108;51.790;10.960;2023-08-06T04:37:45;38.54;27.55;52.62;;
68279;Laerm;55108;51.790;10.960;2023-08-06T04:40:11;60.39;29.24;79.56;;
68279;Laerm;55108;51.790;10.960;2023-08-06T04:42:36;58.07;29.33;71.35;;
68279;Laerm;55108;51.790;10.960;2023-08-06T04:45:02;53.81;28.79;70.09;;
68279;Laerm;55108;51.790;10.960;2023-08-06T04:47:28;61.09;30.07;75.45;;
68279;Laerm;55108;51.790;10.960;2023-08-06T04:49:54;36.36;29.82;47.12;;
68279;Laerm;55108;51.790;10.960;2023-08-06T04:52:20;48.81;29.14;63.86;;
68279;Laerm;55108;51.790;10.960;2023-08-06T04:54:45;51.86;28.06;67.26;;
68279;Laerm;55108;51.790;10.960;2023-08-06T04:57:11;58.32;28.80;77.18;;
68279;Laerm;55108;51.790;10.960;2023-08-06T04:59:37;33.82;27.88;44.74;;
68279;Laerm;55108;51.790;10.960;2023-08-06T05:02:03;58.33;28.52;73.88;;
68279;Laerm;55108;51.790;10.960;2023-08-06T05:04:28;60.56;30.83;74.82;;
68279;Laerm;55108;51.790;10.960;2023-08-06T05:06:54;54.52;27.52;72.46;;
68279;Laerm;55108;51.790;10.960;2023-08-06T05:09:20;63.59;36.95;80.33;;
68279;Laerm;55108;51.790;10.960;2023-08-06T05:11:46;58.00;27.36;76.72;;
68279;Laerm;55108;51.790;10.960;2023-08-06T05:14:12;57.78;28.72;71.39;;
68279;Laerm;55108;51.790;10.960;2023-08-06T05:16:38;60.48;29.63;77.42;;
68279;Laerm;55108;51.790;10.960;2023-08-06T05:19:03;60.34;29.14;75.06;;
68279;Laerm;55108;51.790;10.960;2023-08-06T05:21:29;60.96;30.47;76.99;;
68279;Laerm;55108;51.790;10.960;2023-08-06T05:23:55;59.16;29.74;74.08;;
68279;Laerm;55108;51.790;10.960;2023-08-06T05:26:21;58.56;28.22;74.38;;
68279;Laerm;55108;51.790;10.960;2023-08-06T05:28:46;61.42;33.12;75.53;;
68279;Laerm;55108;51.790;10.960;2023-08-06T05:31:12;51.92;27.36;69.77;;
68279;Laerm;55108;51.790;10.960;2023-08-06T05:33:38;58.58;29.47;76.73;;
68279;Laerm;55108;51.790;10.960;2023-08-06T05:36:04;58.65;27.88;74.03;;
68279;Laerm;55108;51.790;10.960;2023-08-06T05:38:29;56.72;30.90;70.92;;
68279;Laerm;55108;51.790;10.960;2023-08-06T05:40:55;62.02;29.42;76.90;;
68279;Laerm;55108;51.790;10.960;2023-08-06T05:43:21;58.03;33.33;72.46;;
68279;Laerm;55108;51.790;10.960;2023-08-06T05:45:49;65.48;36.54;76.66;;
68279;Laerm;55108;51.790;10.960;2023-08-06T05:48:15;61.59;31.21;74.45;;
68279;Laerm;55108;51.790;10.960;2023-08-06T05:50:41;66.06;39.04;77.84;;
68279;Laerm;55108;51.790;10.960;2023-08-06T05:53:07;61.41;29.89;75.51;;
68279;Laerm;55108;51.790;10.960;2023-08-06T05:55:32;59.25;28.48;72.67;;
68279;Laerm;55108;51.790;10.960;2023-08-06T05:57:58;60.55;27.62;76.17;;
68279;Laerm;55108;51.790;10.960;2023-08-06T06:00:24;51.28;29.28;66.72;;
68279;Laerm;55108;51.790;10.960;2023-08-06T06:02:50;56.93;29.11;71.71;;
68279;Laerm;55108;51.790;10.960;2023-08-06T06:05:16;57.21;28.35;70.27;;
68279;Laerm;55108;51.790;10.960;2023-08-06T06:07:41;58.53;30.95;73.98;;
68279;Laerm;55108;51.790;10.960;2023-08-06T06:10:07;61.08;30.82;74.03;;
68279;Laerm;55108;51.790;10.960;2023-08-06T06:12:33;58.93;30.93;75.56;;
68279;Laerm;55108;51.790;10.960;2023-08-06T06:14:59;61.08;32.01;74.78;;
68279;Laerm;55108;51.790;10.960;2023-08-06T06:17:26;60.26;32.22;74.92;;
68279;Laerm;55108;51.790;10.960;2023-08-06T06:19:51;65.06;39.69;75.96;;
68279;Laerm;55108;51.790;10.960;2023-08-06T06:22:17;41.06;27.86;53.88;;
68279;Laerm;55108;51.790;10.960;2023-08-06T06:24:43;59.29;30.73;74.21;;
68279;Laerm;55108;51.790;10.960;2023-08-06T06:27:08;67.39;36.41;79.87;;
68279;Laerm;55108;51.790;10.960;2023-08-06T06:29:34;63.24;34.24;75.30;;
68279;Laerm;55108;51.790;10.960;2023-08-06T06:32:00;62.35;35.72;73.79;;
68279;Laerm;55108;51.790;10.960;2023-08-06T06:34:26;61.59;36.89;74.40;;
68279;Laerm;55108;51.790;10.960;2023-08-06T06:36:51;63.82;38.37;74.66;;
68279;Laerm;55108;51.790;10.960;2023-08-06T06:39:17;63.73;32.59;76.68;;
68279;Laerm;55108;51.790;10.960;2023-08-06T06:41:43;64.03;34.06;77.12;;
68279;Laerm;55108;51.790;10.960;2023-08-06T06:44:09;54.40;30.83;69.70;;
68279;Laerm;55108;51.790;10.960;2023-08-06T06:46:35;65.86;35.30;77.75;;
68279;Laerm;55108;51.790;10.960;2023-08-06T06:49:00;64.00;33.40;75.13;;
68279;Laerm;55108;51.790;10.960;2023-08-06T06:51:26;64.61;39.21;76.48;;
68279;Laerm;55108;51.790;10.960;2023-08-06T06:53:52;61.26;30.50;74.22;;
68279;Laerm;55108;51.790;10.960;2023-08-06T06:56:18;53.44;32.07;67.32;;
68279;Laerm;55108;51.790;10.960;2023-08-06T06:58:43;64.74;32.27;76.90;;
68279;Laerm;55108;51.790;10.960;2023-08-06T07:01:09;63.35;35.15;78.06;;
68279;Laerm;55108;51.790;10.960;2023-08-06T07:03:36;59.65;29.29;73.44;;
68279;Laerm;55108;51.790;10.960;2023-08-06T07:06:02;64.60;33.11;77.36;;
68279;Laerm;55108;51.790;10.960;2023-08-06T07:08:28;64.51;36.42;79.88;;
68279;Laerm;55108;51.790;10.960;2023-08-06T07:11:01;60.66;33.81;74.84;;
68279;Laerm;55108;51.790;10.960;2023-08-06T07:13:27;64.66;36.28;75.47;;
68279;Laerm;55108;51.790;10.960;2023-08-06T07:15:54;62.11;32.06;74.16;;
68279;Laerm;55108;51.790;10.960;2023-08-06T07:18:19;65.21;34.93;76.53;;
68279;Laerm;55108;51.790;10.960;2023-08-06T07:20:51;64.29;35.42;77.72;;
68279;Laerm;55108;51.790;10.960;2023-08-06T07:23:19;64.42;35.81;76.39;;
68279;Laerm;55108;51.790;10.960;2023-08-06T07:25:45;65.16;48.72;75.71;;
68279;Laerm;55108;51.790;10.960;2023-08-06T07:28:11;62.99;38.70;73.13;;
68279;Laerm;55108;51.790;10.960;2023-08-06T07:30:40;63.28;34.01;74.73;;
68279;Laerm;55108;51.790;10.960;2023-08-06T07:33:06;65.71;36.69;80.15;;
68279;Laerm;55108;51.790;10.960;2023-08-06T07:35:32;64.36;37.19;75.51;;
68279;Laerm;55108;51.790;10.960;2023-08-06T07:37:58;64.33;41.14;74.76;;
68279;Laerm;55108;51.790;10.960;2023-08-06T07:40:23;63.86;37.59;71.71;;
68279;Laerm;55108;51.790;10.960;2023-08-06T07:42:49;65.14;32.61;76.43;;
68279;Laerm;55108;51.790;10.960;2023-08-06T07:45:15;59.73;35.62;73.04;;
68279;Laerm;55108;51.790;10.960;2023-08-06T07:47:41;63.97;42.20;75.26;;
68279;Laerm;55108;51.790;10.960;2023-08-06T07:50:08;65.57;39.22;76.17;;
68279;Laerm;55108;51.790;10.960;2023-08-06T07:52:33;64.99;39.63;76.83;;
68279;Laerm;55108;51.790;10.960;2023-08-06T07:54:59;64.05;36.79;73.99;;
68279;Laerm;55108;51.790;10.960;2023-08-06T07:57:26;63.88;38.83;74.79;;
68279;Laerm;55108;51.790;10.960;2023-08-06T07:59:52;65.36;40.57;76.72;;
68279;Laerm;55108;51.790;10.960;2023-08-06T08:02:19;65.18;41.59;74.24;;
68279;Laerm;55108;51.790;10.960;2023-08-06T08:04:44;64.68;40.00;75.28;;
68279;Laerm;55108;51.790;10.960;2023-08-06T08:07:12;64.66;44.45;75.05;;
68279;Laerm;55108;51.790;10.960;2023-08-06T08:09:38;66.60;42.72;78.61;;
68279;Laerm;55108;51.790;10.960;2023-08-06T08:12:04;64.31;39.26;75.85;;
68279;Laerm;55108;51.790;10.960;2023-08-06T08:14:29;66.92;39.84;74.73;;
68279;Laerm;55108;51.790;10.960;2023-08-06T08:17:00;64.18;40.29;77.50;;
68279;Laerm;55108;51.790;10.960;2023-08-06T08:19:26;66.72;45.76;76.89;;
68279;Laerm;55108;51.790;10.960;2023-08-06T08:21:53;67.77;54.43;78.16;;
68279;Laerm;55108;51.790;10.960;2023-08-06T08:24:19;68.20;52.37;76.95;;
68279;Laerm;55108;51.790;10.960;2023-08-06T08:26:45;66.84;39.08;77.38;;
68279;Laerm;55108;51.790;10.960;2023-08-06T08:29:11;67.03;45.71;74.86;;
68279;Laerm;55108;51.790;10.960;2023-08-06T08:31:36;65.16;39.94;81.53;;
68279;Laerm;55108;51.790;10.960;2023-08-06T08:34:04;66.46;46.14;75.40;;
68279;Laerm;55108;51.790;10.960;2023-08-06T08:36:31;64.04;37.26;75.21;;
68279;Laerm;55108;51.790;10.960;2023-08-06T08:38:56;65.60;40.06;77.22;;
68279;Laerm;55108;51.790;10.960;2023-08-06T08:41:22;66.45;40.82;76.42;;
68279;Laerm;55108;51.790;10.960;2023-08-06T08:43:49;68.61;39.78;87.98;;
68279;Laerm;55108;51.790;10.960;2023-08-06T08:46:17;65.84;42.68;75.04;;
68279;Laerm;55108;51.790;10.960;2023-08-06T08:48:42;66.01;37.80;74.62;;
68279;Laerm;55108;51.790;10.960;2023-08-06T08:51:09;66.35;41.89;74.65;;
68279;Laerm;55108;51.790;10.960;2023-08-06T08:53:35;64.84;37.58;74.64;;
68279;Laerm;55108;51.790;10.960;2023-08-06T08:56:04;63.70;38.87;72.58;;
68279;Laerm;55108;51.790;10.960;2023-08-06T08:58:30;66.37;42.08;76.25;;
68279;Laerm;55108;51.790;10.960;2023-08-06T09:00:56;67.76;45.08;79.02;;
68279;Laerm;55108;51.790;10.960;2023-08-06T09:03:22;64.52;43.19;75.75;;
68279;Laerm;55108;51.790;10.960;2023-08-06T09:05:49;67.04;40.06;76.00;;
68279;Laerm;55108;51.790;10.960;2023-08-06T09:08:15;66.47;46.07;74.05;;
68279;Laerm;55108;51.790;10.960;2023-08-06T09:10:43;67.40;43.40;75.27;;
68279;Laerm;55108;51.790;10.960;2023-08-06T09:13:09;66.60;39.89;77.15;;
68279;Laerm;55108;51.790;10.960;2023-08-06T09:15:37;66.99;45.44;74.66;;
68279;Laerm;55108;51.790;10.960;2023-08-06T09:18:08;66.59;42.32;78.07;;
68279;Laerm;55108;51.790;10.960;2023-08-06T09:20:34;67.08;39.05;76.28;;
68279;Laerm;55108;51.790;10.960;2023-08-06T09:23:06;66.19;39.01;76.21;;
68279;Laerm;55108;51.790;10.960;2023-08-06T09:25:32;66.10;38.37;78.16;;
68279;Laerm;55108;51.790;10.960;2023-08-06T09:27:58;63.85;39.09;73.82;;
68279;Laerm;55108;51.790;10.960;2023-08-06T09:30:30;65.02;41.53;76.04;;
68279;Laerm;55108;51.790;10.960;2023-08-06T09:32:56;65.20;47.22;74.13;;
68279;Laerm;55108;51.790;10.960;2023-08-06T09:35:22;64.19;39.72;74.52;;
68279;Laerm;55108;51.790;10.960;2023-08-06T09:37:47;65.36;43.85;76.26;;
68279;Laerm;55108;51.790;10.960;2023-08-06T09:40:26;66.72;47.96;80.36;;
68279;Laerm;55108;51.790;10.960;2023-08-06T09:42:52;67.44;42.39;75.94;;
68279;Laerm;55108;51.790;10.960;2023-08-06T09:45:18;65.64;41.26;76.40;;
68279;Laerm;55108;51.790;10.960;2023-08-06T09:47:44;64.74;43.64;73.41;;
68279;Laerm;55108;51.790;10.960;2023-08-06T09:50:19;63.46;39.73;75.24;;
68279;Laerm;55108;51.790;10.960;2023-08-06T09:52:45;66.62;44.02;77.01;;
68279;Laerm;55108;51.790;10.960;2023-08-06T09:55:11;66.79;42.89;80.93;;
68279;Laerm;55108;51.790;10.960;2023-08-06T09:57:37;65.02;44.40;77.30;;
68279;Laerm;55108;51.790;10.960;2023-08-06T10:00:03;66.26;37.77;75.97;;
68279;Laerm;55108;51.790;10.960;2023-08-06T10:02:30;67.94;49.20;78.01;;
68279;Laerm;55108;51.790;10.960;2023-08-06T10:04:57;64.93;38.75;74.62;;
68279;Laerm;55108;51.790;10.960;2023-08-06T10:07:24;67.15;45.35;75.41;;
68279;Laerm;55108;51.790;10.960;2023-08-06T10:09:50;63.06;35.11;74.02;;
68279;Laerm;55108;51.790;10.960;2023-08-06T10:12:15;67.50;41.58;78.44;;
68279;Laerm;55108;51.790;10.960;2023-08-06T10:14:43;64.36;39.96;74.28;;
68279;Laerm;55108;51.790;10.960;2023-08-06T10:17:09;65.71;39.36;75.97;;
68279;Laerm;55108;51.790;10.960;2023-08-06T10:19:35;67.61;36.35;81.84;;
68279;Laerm;55108;51.790;10.960;2023-08-06T10:22:08;64.91;41.37;76.60;;
68279;Laerm;55108;51.790;10.960;2023-08-06T10:24:45;66.94;42.27;81.45;;
68279;Laerm;55108;51.790;10.960;2023-08-06T10:27:11;66.45;35.86;82.91;;
68279;Laerm;55108;51.790;10.960;2023-08-06T10:29:36;65.79;41.16;76.54;;
68279;Laerm;55108;51.790;10.960;2023-08-06T10:32:03;63.88;38.37;75.67;;
68279;Laerm;55108;51.790;10.960;2023-08-06T10:37:15;64.99;36.15;76.69;;
68279;Laerm;55108;51.790;10.960;2023-08-06T10:39:47;66.57;38.61;76.42;;
68279;Laerm;55108;51.790;10.960;2023-08-06T10:42:22;66.48;36.41;77.73;;
68279;Laerm;55108;51.790;10.960;2023-08-06T10:45:11;66.13;40.31;74.73;;
68279;Laerm;55108;51.790;10.960;2023-08-06T10:47:38;62.97;35.83;73.30;;
68279;Laerm;55108;51.790;10.960;2023-08-06T10:50:05;65.62;41.64;79.38;;
68279;Laerm;55108;51.790;10.960;2023-08-06T10:52:31;66.90;41.13;77.55;;
68279;Laerm;55108;51.790;10.960;2023-08-06T10:54:57;67.79;42.77;77.43;;
68279;Laerm;55108;51.790;10.960;2023-08-06T10:57:23;64.04;38.14;76.76;;
68279;Laerm;55108;51.790;10.960;2023-08-06T10:59:49;66.11;44.94;78.56;;
68279;Laerm;55108;51.790;10.960;2023-08-06T11:02:16;63.11;35.47;74.06;;
68279;Laerm;55108;51.790;10.960;2023-08-06T11:04:41;66.34;41.63;75.02;;
68279;Laerm;55108;51.790;10.960;2023-08-06T11:07:07;66.36;43.09;76.91;;
68279;Laerm;55108;51.790;10.960;2023-08-06T11:09:33;65.17;41.22;77.85;;
68279;Laerm;55108;51.790;10.960;2023-08-06T11:11:59;64.02;37.62;75.03;;
68279;Laerm;55108;51.790;10.960;2023-08-06T11:14:24;66.12;36.53;76.22;;
68279;Laerm;55108;51.790;10.960;2023-08-06T11:16:50;67.19;47.47;76.69;;
68279;Laerm;55108;51.790;10.960;2023-08-06T11:19:16;64.32;41.03;75.07;;
68279;Laerm;55108;51.790;10.960;2023-08-06T11:21:42;62.86;36.18;75.94;;
68279;Laerm;55108;51.790;10.960;2023-08-06T11:24:11;67.33;50.45;76.02;;
68279;Laerm;55108;51.790;10.960;2023-08-06T11:26:37;66.18;39.90;77.98;;
68279;Laerm;55108;51.790;10.960;2023-08-06T11:29:05;63.17;37.88;74.77;;
68279;Laerm;55108;51.790;10.960;2023-08-06T11:31:31;67.46;40.51;75.55;;
68279;Laerm;55108;51.790;10.960;2023-08-06T11:33:56;65.88;40.24;77.05;;
68279;Laerm;55108;51.790;10.960;2023-08-06T11:36:32;65.91;43.34;74.70;;
68279;Laerm;55108;51.790;10.960;2023-08-06T11:38:58;64.90;37.71;74.29;;
68279;Laerm;55108;51.790;10.960;2023-08-06T11:41:24;64.93;41.36;75.04;;
68279;Laerm;55108;51.790;10.960;2023-08-06T11:43:50;65.56;40.75;75.52;;
68279;Laerm;55108;51.790;10.960;2023-08-06T11:46:15;64.77;37.37;75.89;;
68279;Laerm;55108;51.790;10.960;2023-08-06T11:51:42;64.75;35.67;76.73;;
68279;Laerm;55108;51.790;10.960;2023-08-06T11:54:07;66.72;39.54;78.17;;
68279;Laerm;55108;51.790;10.960;2023-08-06T11:56:33;65.70;44.74;76.51;;
68279;Laerm;55108;51.790;10.960;2023-08-06T11:59:00;66.41;40.32;76.05;;
68279;Laerm;55108;51.790;10.960;2023-08-06T12:01:26;65.26;43.95;75.70;;
68279;Laerm;55108;51.790;10.960;2023-08-06T12:03:52;66.16;36.63;78.37;;
68279;Laerm;55108;51.790;10.960;2023-08-06T12:06:26;64.70;39.24;76.13;;
68279;Laerm;55108;51.790;10.960;2023-08-06T12:08:52;68.70;41.16;90.18;;
68279;Laerm;55108;51.790;10.960;2023-08-06T12:11:20;86.58;43.96;108.14;;
68279;Laerm;55108;51.790;10.960;2023-08-06T12:13:50;61.82;35.31;73.14;;
68279;Laerm;55108;51.790;10.960;2023-08-06T12:16:16;64.77;35.68;74.77;;
68279;Laerm;55108;51.790;10.960;2023-08-06T12:18:43;66.35;37.16;77.10;;
68279;Laerm;55108;51.790;10.960;2023-08-06T12:21:09;67.71;43.36;83.95;;
68279;Laerm;55108;51.790;10.960;2023-08-06T12:23:35;66.87;41.08;76.58;;
68279;Laerm;55108;51.790;10.960;2023-08-06T12:26:01;64.65;38.62;76.42;;
68279;Laerm;55108;51.790;10.960;2023-08-06T12:28:27;67.09;48.35;77.89;;
68279;Laerm;55108;51.790;10.960;2023-08-06T12:30:52;64.10;41.25;81.26;;
68279;Laerm;55108;51.790;10.960;2023-08-06T12:33:20;66.19;46.88;73.91;;
68279;Laerm;55108;51.790;10.960;2023-08-06T12:35:46;66.76;42.53;80.96;;
68279;Laerm;55108;51.790;10.960;2023-08-06T12:38:11;67.06;45.17;75.29;;
68279;Laerm;55108;51.790;10.960;2023-08-06T12:40:38;67.85;39.64;81.20;;
68279;Laerm;55108;51.790;10.960;2023-08-06T12:43:04;67.28;41.39;78.41;;
68279;Laerm;55108;51.790;10.960;2023-08-06T12:45:30;65.74;41.46;78.01;;
68279;Laerm;55108;51.790;10.960;2023-08-06T12:47:55;65.50;42.79;74.40;;
68279;Laerm;55108;51.790;10.960;2023-08-06T12:50:21;66.13;42.87;75.73;;
68279;Laerm;55108;51.790;10.960;2023-08-06T12:52:47;65.94;42.57;75.60;;
68279;Laerm;55108;51.790;10.960;2023-08-06T12:55:13;66.25;40.54;76.80;;
68279;Laerm;55108;51.790;10.960;2023-08-06T12:57:38;67.47;43.91;76.10;;
68279;Laerm;55108;51.790;10.960;2023-08-06T13:00:04;65.14;45.50;75.93;;
68279;Laerm;55108;51.790;10.960;2023-08-06T13:02:30;67.93;48.33;76.75;;
68279;Laerm;55108;51.790;10.960;2023-08-06T13:04:56;64.90;40.00;74.30;;
68279;Laerm;55108;51.790;10.960;2023-08-06T13:07:22;66.30;41.26;79.93;;
68279;Laerm;55108;51.790;10.960;2023-08-06T13:09:47;66.96;40.83;75.44;;
68279;Laerm;55108;51.790;10.960;2023-08-06T13:12:13;65.78;42.96;75.40;;
68279;Laerm;55108;51.790;10.960;2023-08-06T13:14:39;65.75;41.81;74.99;;
68279;Laerm;55108;51.790;10.960;2023-08-06T13:17:05;66.83;46.29;74.92;;
68279;Laerm;55108;51.790;10.960;2023-08-06T13:19:32;65.30;39.90;75.48;;
68279;Laerm;55108;51.790;10.960;2023-08-06T13:21:59;67.00;42.12;76.57;;
68279;Laerm;55108;51.790;10.960;2023-08-06T13:24:27;66.90;40.39;77.05;;
68279;Laerm;55108;51.790;10.960;2023-08-06T13:26:52;66.92;43.68;75.84;;
68279;Laerm;55108;51.790;10.960;2023-08-06T13:29:18;63.30;39.32;75.02;;
68279;Laerm;55108;51.790;10.960;2023-08-06T13:31:44;63.30;38.04;76.12;;
68279;Laerm;55108;51.790;10.960;2023-08-06T13:34:10;65.17;38.07;85.07;;
68279;Laerm;55108;51.790;10.960;2023-08-06T13:36:35;64.02;41.41;74.11;;
68279;Laerm;55108;51.790;10.960;2023-08-06T13:39:01;65.70;38.35;76.17;;